Time;durP1;ratioP1;P1;durP2;ratioP2;P2;SDS_P1;SDS_P2;PMS_P1;PMS_P2;Temp;Humidity;BMP_temperature;BMP_pressure;BME280_temperature;BME280_humidity;BME280_pressure;Samples;Min_cycle;Max_cycle;Signal;HPM_P1;HPM_P2
2023/10/23 07:23:22;;;;;;;7.95;5.45;;;;;;;-145.79;100.00;77953.84;5322486;27;20335;-69
2023/10/23 07:26:19;;;;;;;11.07;7.95;;;;;;;-145.79;100.00;77953.84;5307459;28;20039;-69
2023/10/23 07:28:51;;;;;;;10.57;5.18;;;;;;;-145.79;100.00;77951.72;5281784;28;20033;-68
2023/10/23 07:31:22;;;;;;;8.85;6.63;;;;;;;-145.79;100.00;77958.09;5315600;28;20032;-68
2023/10/23 07:33:53;;;;;;;7.25;5.20;;;;;;;-145.79;100.00;77945.38;5302513;28;20034;-68
2023/10/23 07:36:25;;;;;;;6.60;5.30;;;;;;;-145.79;100.00;77945.38;5316600;28;20016;-68
2023/10/23 07:38:56;;;;;;;10.88;5.90;;;;;;;-145.79;100.00;77941.13;5308698;28;20028;-68
2023/10/23 07:41:27;;;;;;;5.38;4.82;;;;;;;-145.79;100.00;77934.78;5314416;28;20023;-67
2023/10/23 07:43:59;;;;;;;6.70;5.72;;;;;;;-145.79;100.00;77934.78;5304440;28;20162;-69
2023/10/23 07:46:31;;;;;;;7.75;5.07;;;;;;;-145.79;100.00;77930.53;5298299;28;20027;-70
2023/10/23 07:49:02;;;;;;;5.65;4.65;;;;;;;-145.79;100.00;77922.06;5313187;28;20541;-71
2023/10/23 07:51:33;;;;;;;7.85;5.47;;;;;;;-145.79;100.00;77924.19;5308630;28;20085;-70
2023/10/23 07:54:05;;;;;;;10.38;8.98;;;;;;;-145.79;100.00;77911.47;5308288;28;20055;-70
2023/10/23 07:56:36;;;;;;;8.25;5.90;;;;;;;-145.79;100.00;77917.81;5313188;28;20123;-69
2023/10/23 07:59:08;;;;;;;8.02;5.63;;;;;;;-145.79;100.00;77915.69;5312132;28;20109;-68
2023/10/23 08:01:39;;;;;;;8.50;5.95;;;;;;;-145.79;100.00;77900.84;5293877;28;20032;-68
2023/10/23 08:04:11;;;;;;;8.30;5.97;;;;;;;-145.79;100.00;77886.00;5295824;28;20111;-68
2023/10/23 08:06:42;;;;;;;8.35;5.72;;;;;;;-145.79;100.00;77890.25;5297778;28;20024;-71
2023/10/23 08:09:14;;;;;;;11.90;6.97;;;;;;;-145.79;100.00;77881.78;5303748;28;20475;-70
2023/10/23 08:11:45;;;;;;;7.55;5.30;;;;;;;-145.79;100.00;77877.53;5311922;28;20108;-69
2023/10/23 08:14:16;;;;;;;7.13;4.85;;;;;;;-145.79;100.00;77862.69;5294812;28;20028;-70
2023/10/23 08:16:51;;;;;;;7.68;6.57;;;;;;;-145.79;100.00;77852.09;5304179;28;20101;-70
2023/10/23 08:19:23;;;;;;;8.45;5.38;;;;;;;-145.79;100.00;77858.47;5310591;28;20016;-70
2023/10/23 08:21:57;;;;;;;9.73;5.13;;;;;;;-145.79;100.00;77852.09;5317178;28;20047;-70
2023/10/23 08:24:28;;;;;;;8.95;5.63;;;;;;;-145.79;100.00;77852.09;5326314;28;20149;-71
2023/10/23 08:26:59;;;;;;;6.20;5.35;;;;;;;-145.79;100.00;77839.38;5331073;28;20107;-70
2023/10/23 08:29:31;;;;;;;7.70;6.07;;;;;;;-145.79;100.00;77843.63;5333774;28;20497;-70
2023/10/23 08:32:03;;;;;;;7.15;5.47;;;;;;;-145.79;100.00;77845.75;5321814;28;20031;-72
2023/10/23 08:34:34;;;;;;;12.52;6.07;;;;;;;-145.79;100.00;77843.63;5311546;28;20100;-70
2023/10/23 08:37:05;;;;;;;9.70;6.00;;;;;;;-145.79;100.00;77839.38;5313770;28;20044;-71
2023/10/23 08:39:37;;;;;;;10.48;5.88;;;;;;;-145.79;100.00;77828.78;5318964;28;20030;-71
2023/10/23 08:42:09;;;;;;;16.67;7.55;;;;;;;-145.79;100.00;77826.66;5315393;28;20062;-71
2023/10/23 08:44:42;;;;;;;9.02;5.70;;;;;;;-145.79;100.00;77813.94;5315083;28;20456;-71
2023/10/23 08:47:13;;;;;;;10.07;6.00;;;;;;;-145.79;100.00;77813.94;5317430;28;20390;-71
2023/10/23 08:49:45;;;;;;;7.30;5.75;;;;;;;-145.79;100.00;77813.94;5326851;28;20019;-71
2023/10/23 08:52:20;;;;;;;10.05;6.15;;;;;;;-145.79;100.00;77790.63;5303565;28;20478;-71
2023/10/23 08:54:54;;;;;;;8.07;5.75;;;;;;;-145.79;100.00;77794.88;5313994;28;20407;-71
2023/10/23 08:57:25;;;;;;;8.65;5.63;;;;;;;-145.79;100.00;77773.66;5315452;28;20019;-71
2023/10/23 08:59:57;;;;;;;8.63;5.45;;;;;;;-145.79;100.00;77763.06;5321248;28;20034;-71
2023/10/23 09:02:31;;;;;;;9.75;6.25;;;;;;;-145.79;100.00;77750.34;5315695;28;20069;-71
2023/10/23 09:05:03;;;;;;;10.50;5.80;;;;;;;-145.79;100.00;77754.59;5314588;28;20028;-71
2023/10/23 09:07:35;;;;;;;9.68;5.10;;;;;;;-145.79;100.00;77746.09;5317227;28;20494;-71
2023/10/23 09:10:06;;;;;;;11.27;6.53;;;;;;;-145.79;100.00;77739.75;5316002;28;20036;-71
2023/10/23 09:12:39;;;;;;;9.55;5.30;;;;;;;-145.79;100.00;77741.88;5307537;28;20031;-71
2023/10/23 09:15:21;;;;;;;8.43;5.80;;;;;;;-145.79;100.00;77722.78;5317559;28;20031;-71
2023/10/23 09:17:53;;;;;;;9.55;5.38;;;;;;;-145.79;100.00;77707.94;5313873;28;20421;-71
2023/10/23 09:20:26;;;;;;;9.88;5.70;;;;;;;-145.79;100.00;77703.72;5314324;28;20493;-71
2023/10/23 09:22:58;;;;;;;6.65;5.70;;;;;;;-145.79;100.00;77693.13;5313808;28;20106;-71
2023/10/23 09:25:29;;;;;;;12.70;6.15;;;;;;;-145.79;100.00;77682.50;5309049;28;20095;-71
2023/10/23 09:28:01;;;;;;;9.30;6.05;;;;;;;-145.79;100.00;77680.38;5310549;28;20023;-70
2023/10/23 09:30:33;;;;;;;7.80;5.22;;;;;;;-145.79;100.00;77667.69;5318432;28;20107;-70
2023/10/23 09:33:05;;;;;;;8.68;4.95;;;;;;;-145.79;100.00;77661.31;5307685;28;20474;-71
2023/10/23 09:35:37;;;;;;;8.73;7.10;;;;;;;-145.79;100.00;77648.59;5314067;28;20049;-70
2023/10/23 09:38:12;;;;;;;7.78;4.95;;;;;;;-145.79;100.00;77638.00;5315934;28;20031;-71
2023/10/23 09:40:44;;;;;;;7.07;4.75;;;;;;;-145.79;100.00;77627.41;5318067;28;20055;-70
2023/10/23 09:43:15;;;;;;;11.90;4.43;;;;;;;-145.79;100.00;77623.16;5299815;28;20089;-71
2023/10/23 09:45:47;;;;;;;10.10;4.97;;;;;;;-145.79;100.00;77618.91;5306510;28;20051;-71
2023/10/23 09:48:20;;;;;;;10.20;4.72;;;;;;;-145.79;100.00;77614.69;5315371;28;20058;-72
2023/10/23 09:50:53;;;;;;;9.70;5.05;;;;;;;-145.79;100.00;77612.56;5314256;28;20121;-71
2023/10/23 09:53:24;;;;;;;10.13;4.93;;;;;;;-145.79;100.00;77612.56;5315749;28;20059;-71
2023/10/23 09:55:58;;;;;;;11.05;5.18;;;;;;;-145.79;100.00;77610.44;5317601;28;20023;-71
2023/10/23 09:58:33;;;;;;;8.57;4.32;;;;;;;-145.79;100.00;77606.19;5303136;28;20107;-70
2023/10/23 10:01:06;;;;;;;8.15;5.10;;;;;;;-145.79;100.00;77610.44;5307786;28;20031;-71
2023/10/23 10:03:39;;;;;;;9.57;4.30;;;;;;;-145.79;100.00;77608.31;5294721;28;20037;-71
2023/10/23 10:06:13;;;;;;;8.25;4.60;;;;;;;-145.79;100.00;77604.09;5316908;28;20051;-70
2023/10/23 10:08:50;;;;;;;9.18;4.55;;;;;;;-145.79;100.00;77601.97;5313736;28;20043;-70
2023/10/23 10:11:22;;;;;;;9.38;4.35;;;;;;;-145.79;100.00;77601.97;5313268;28;20032;-71
2023/10/23 10:13:54;;;;;;;8.07;4.40;;;;;;;-145.79;100.00;77597.72;5316708;28;20081;-70
2023/10/23 10:16:26;;;;;;;8.57;4.35;;;;;;;-145.79;100.00;77591.38;5309252;28;20033;-72
2023/10/23 10:18:57;;;;;;;8.95;4.07;;;;;;;-145.79;100.00;77585.00;5306746;28;20026;-72
2023/10/23 10:21:32;;;;;;;10.30;5.50;;;;;;;-145.79;100.00;77585.00;5311826;28;20082;-71
2023/10/23 10:24:04;;;;;;;8.60;3.88;;;;;;;-145.79;100.00;77589.25;5304548;28;20032;-70
2023/10/23 10:26:36;;;;;;;9.32;4.05;;;;;;;-145.79;100.00;77580.75;5312516;28;20093;-71
2023/10/23 10:29:08;;;;;;;9.38;4.50;;;;;;;-145.79;100.00;77568.03;5316935;28;20027;-72
2023/10/23 10:32:11;;;;;;;10.63;5.95;;;;;;;-145.79;100.00;77555.31;5317032;28;20385;-72
2023/10/23 10:34:46;;;;;;;11.43;4.38;;;;;;;-145.79;100.00;77546.84;5291632;28;20025;-71
2023/10/23 10:37:17;;;;;;;14.63;6.78;;;;;;;-145.79;100.00;77538.38;5304878;28;20020;-72
2023/10/23 10:39:50;;;;;;;9.90;4.97;;;;;;;-145.79;100.00;77529.88;5312566;28;20030;-72
2023/10/23 10:42:26;;;;;;;10.07;5.10;;;;;;;-145.79;100.00;77529.88;5315751;28;20566;-71
2023/10/23 10:44:59;;;;;;;8.27;5.15;;;;;;;-145.79;100.00;77521.41;5293875;28;20025;-73
2023/10/23 10:47:40;;;;;;;11.52;5.65;;;;;;;-145.79;100.00;77512.94;5308139;28;20107;-72
2023/10/23 10:50:12;;;;;;;8.75;5.22;;;;;;;-145.79;100.00;77515.06;5308403;28;20032;-73
2023/10/23 10:52:44;;;;;;;8.75;5.45;;;;;;;-145.79;100.00;77504.47;5303424;28;20494;-73
2023/10/23 10:55:17;;;;;;;10.27;5.85;;;;;;;-145.79;99.72;77491.75;5308628;28;20020;-73
2023/10/23 10:57:48;;;;;;;13.25;5.53;;;;;;;-145.79;99.39;77489.63;5316155;28;20016;-73
2023/10/23 11:00:21;;;;;;;11.13;4.57;;;;;;;-145.79;99.61;77466.31;5311141;28;20047;-73
2023/10/23 11:02:53;;;;;;;7.68;4.85;;;;;;;-145.79;98.77;77445.09;5315254;28;20027;-73
2023/10/23 11:05:25;;;;;;;13.85;5.53;;;;;;;-145.79;98.06;77426.03;5311849;28;20028;-73
2023/10/23 11:07:56;;;;;;;9.57;6.22;;;;;;;-145.79;97.27;77421.78;5315073;28;20126;-72
2023/10/23 11:10:28;;;;;;;15.40;5.65;;;;;;;-145.79;97.63;77417.53;5300271;28;20032;-72
2023/10/23 11:12:59;;;;;;;7.88;4.70;;;;;;;-145.79;97.69;77415.44;5312160;28;20027;-67
2023/10/23 11:15:30;;;;;;;10.10;5.45;;;;;;;-145.79;97.64;77409.06;5309735;28;20032;-68
2023/10/23 11:18:02;;;;;;;9.77;4.82;;;;;;;-145.79;98.09;77402.72;5315976;28;20031;-69
2023/10/23 11:20:35;;;;;;;12.57;5.15;;;;;;;-145.79;98.82;77390.00;5309256;28;20031;-69
2023/10/23 11:23:06;;;;;;;8.38;4.35;;;;;;;-145.79;97.70;77396.34;5310189;28;20051;-69
2023/10/23 11:25:38;;;;;;;9.45;4.63;;;;;;;-145.79;97.53;77392.13;5316748;28;20023;-69
2023/10/23 11:28:09;;;;;;;8.48;4.90;;;;;;;-145.79;97.60;77383.63;5315438;28;20039;-69
2023/10/23 11:30:46;;;;;;;12.00;4.95;;;;;;;-145.79;97.35;77377.28;5316093;28;20169;-68
2023/10/23 11:33:18;;;;;;;7.65;3.80;;;;;;;-145.79;99.21;77339.13;5312573;28;20035;-68
2023/10/23 11:35:52;;;;;;;10.75;5.13;;;;;;;-145.79;98.28;77356.06;5313094;28;20016;-69
2023/10/23 11:38:24;;;;;;;6.57;3.80;;;;;;;-145.79;97.66;77334.88;5315544;28;20027;-67
2023/10/23 11:40:55;;;;;;;6.78;4.65;;;;;;;-145.79;96.46;77343.38;5321031;28;20023;-69
2023/10/23 11:43:27;;;;;;;8.07;4.53;;;;;;;-145.79;96.23;77347.59;5305859;28;20375;-69
2023/10/23 11:45:58;;;;;;;10.55;4.20;;;;;;;-145.79;97.10;77337.00;5308374;28;20492;-69
2023/10/23 11:48:30;;;;;;;9.30;4.97;;;;;;;-145.79;96.87;77328.53;5315824;28;20050;-68
2023/10/23 11:51:01;;;;;;;4.50;3.42;;;;;;;-145.79;98.06;77288.25;5315036;28;20028;-70
2023/10/23 11:53:34;;;;;;;11.85;4.70;;;;;;;-145.79;96.31;77307.31;5305828;28;20030;-68
2023/10/23 11:56:05;;;;;;;9.50;4.80;;;;;;;-145.79;96.12;77317.94;5314677;28;20027;-68
2023/10/23 11:58:36;;;;;;;9.77;4.40;;;;;;;-145.79;96.86;77303.09;5310955;28;20036;-68
2023/10/23 12:01:07;;;;;;;12.23;5.25;;;;;;;-145.79;96.03;77296.72;5294450;28;20020;-68
2023/10/23 12:03:39;;;;;;;9.10;3.67;;;;;;;-145.79;96.01;77290.38;5315065;28;20080;-66
2023/10/23 12:06:10;;;;;;;7.78;4.28;;;;;;;-145.79;94.84;77284.00;5302717;28;20097;-69
2023/10/23 12:08:41;;;;;;;6.90;4.60;;;;;;;-145.79;95.64;77281.91;5318610;28;20111;-69
2023/10/23 12:11:13;;;;;;;9.80;4.43;;;;;;;-145.79;96.35;77275.53;5321519;28;20505;-69
2023/10/23 12:13:44;;;;;;;13.50;5.93;;;;;;;-145.79;96.61;77279.78;5314898;28;20483;-67
2023/10/23 12:16:15;;;;;;;9.35;4.75;;;;;;;-145.79;96.59;77273.41;5316578;28;20115;-68
2023/10/23 12:18:47;;;;;;;8.55;3.80;;;;;;;-145.79;95.84;77271.28;5309509;28;20032;-69
2023/10/23 12:21:21;;;;;;;12.32;4.53;;;;;;;-145.79;95.75;77260.69;5318387;28;20443;-68
2023/10/23 12:23:52;;;;;;;8.77;4.47;;;;;;;-145.79;94.81;77264.94;5310765;28;20457;-68
2023/10/23 12:26:24;;;;;;;11.35;4.75;;;;;;;-145.79;94.84;77267.06;5318556;28;20110;-70
2023/10/23 12:28:55;;;;;;;14.20;11.63;;;;;;;-145.79;95.61;77262.81;5314978;28;20027;-68
2023/10/23 12:31:26;;;;;;;9.80;5.70;;;;;;;-145.79;95.76;77258.56;5297543;28;20414;-69
2023/10/23 12:33:58;;;;;;;10.00;5.22;;;;;;;-145.79;95.91;77243.75;5309667;28;20028;-69
2023/10/23 12:36:29;;;;;;;10.65;4.88;;;;;;;-145.79;95.24;77252.22;5310927;28;20374;-69
2023/10/23 12:39:01;;;;;;;8.02;5.07;;;;;;;-145.79;94.59;77254.34;5317514;28;20034;-69
2023/10/23 12:41:35;;;;;;;5.97;4.03;;;;;;;-145.79;94.47;77250.09;5303533;28;20085;-69
2023/10/23 12:44:06;;;;;;;10.50;5.90;;;;;;;-145.79;94.79;77237.38;5315764;28;20440;-69
2023/10/23 12:46:38;;;;;;;11.52;5.47;;;;;;;-145.79;94.74;77233.16;5320755;28;20034;-69
2023/10/23 12:49:09;;;;;;;9.50;4.47;;;;;;;-145.79;94.79;77222.53;5286076;28;20159;-69
2023/10/23 12:51:40;;;;;;;11.63;4.43;;;;;;;-145.79;95.16;77209.81;5307611;28;20019;-69
2023/10/23 12:54:12;;;;;;;10.60;4.93;;;;;;;-145.79;94.41;77203.47;5312192;28;20032;-69
2023/10/23 12:56:46;;;;;;;7.50;4.95;;;;;;;-145.79;93.88;77209.81;5309043;28;20020;-68
2023/10/23 12:59:17;;;;;;;6.35;4.93;;;;;;;-145.79;94.42;77199.22;5303802;28;20062;-68
2023/10/23 13:01:48;;;;;;;9.10;5.10;;;;;;;-145.79;94.44;77192.88;5318626;28;20404;-68
2023/10/23 13:04:21;;;;;;;9.40;6.00;;;;;;;-145.79;94.44;77190.75;5313379;28;20105;-69
2023/10/23 13:06:53;;;;;;;8.70;5.25;;;;;;;-145.79;94.03;77186.50;5317282;28;20080;-68
2023/10/23 13:09:25;;;;;;;18.35;16.08;;;;;;;-145.79;93.29;77184.41;5303767;28;20024;-69
2023/10/23 13:11:58;;;;;;;6.65;4.63;;;;;;;-145.79;92.98;77182.28;5310762;28;20106;-68
2023/10/23 13:14:29;;;;;;;6.05;3.90;;;;;;;-145.79;93.23;77186.50;5307036;28;20041;-68
2023/10/23 13:17:00;;;;;;;10.70;5.40;;;;;;;-145.79;93.84;77169.56;5317833;28;20024;-68
2023/10/23 13:19:32;;;;;;;6.32;5.70;;;;;;;-145.79;94.33;77156.84;5307709;28;20020;-68
2023/10/23 13:22:04;;;;;;;6.60;4.53;;;;;;;-145.79;94.45;77156.84;5311446;28;20530;-69
2023/10/23 13:24:36;;;;;;;8.52;5.32;;;;;;;-145.79;94.84;77161.06;5313763;28;20039;-68
2023/10/23 13:27:07;;;;;;;9.02;5.38;;;;;;;-145.79;95.09;77154.72;5320379;28;20351;-68
2023/10/23 13:29:38;;;;;;;10.50;5.88;;;;;;;-145.79;95.11;77152.59;5308413;28;20386;-68
2023/10/23 13:32:16;;;;;;;8.43;4.95;;;;;;;-145.79;94.73;77144.13;5304728;28;20406;-68
2023/10/23 13:34:47;;;;;;;7.25;5.43;;;;;;;-145.79;94.20;77144.13;5310498;28;20032;-68
2023/10/23 13:37:18;;;;;;;7.25;4.75;;;;;;;-145.79;94.90;77127.16;5317147;28;20027;-67
2023/10/23 13:39:49;;;;;;;8.10;4.68;;;;;;;-145.79;94.68;77125.03;5313568;28;20035;-67
2023/10/23 13:42:21;;;;;;;5.72;4.10;;;;;;;-145.79;94.92;77110.22;5305819;28;20024;-69
2023/10/23 13:44:52;;;;;;;5.65;3.92;;;;;;;-145.79;93.80;77114.44;5302175;28;20637;-67
2023/10/23 13:47:23;;;;;;;5.15;3.90;;;;;;;-145.79;95.08;77097.50;5307326;28;20028;-67
2023/10/23 13:49:57;;;;;;;13.98;5.32;;;;;;;-145.79;92.72;77101.72;5312371;28;20731;-67
2023/10/23 13:52:28;;;;;;;5.38;4.03;;;;;;;-145.79;91.68;77103.84;5319325;28;20032;-68
2023/10/23 13:54:59;;;;;;;7.40;4.22;;;;;;;-145.79;90.37;77101.72;5297705;28;20080;-67
2023/10/23 13:57:31;;;;;;;8.05;4.55;;;;;;;-145.79;89.43;77105.97;5309610;28;20422;-68
2023/10/23 14:00:03;;;;;;;23.70;21.17;;;;;;;-145.79;88.64;77097.50;5303734;28;20110;-69
2023/10/23 14:02:34;;;;;;;7.88;4.15;;;;;;;-145.79;88.58;77095.38;5308093;28;20023;-69
2023/10/23 14:05:06;;;;;;;5.65;5.05;;;;;;;-145.79;89.11;77099.63;5303604;28;20024;-69
2023/10/23 14:07:37;;;;;;;6.35;4.30;;;;;;;-145.79;88.69;77108.09;5315056;28;20089;-69
2023/10/23 14:10:09;;;;;;;9.73;5.57;;;;;;;-145.79;87.38;77114.44;5310020;28;20092;-69
2023/10/23 14:12:40;;;;;;;6.60;5.70;;;;;;;-145.79;87.60;77114.44;5313399;28;20145;-70
2023/10/23 14:15:11;;;;;;;8.05;4.75;;;;;;;-145.79;88.70;77105.97;5309523;28;20111;-69
2023/10/23 14:17:42;;;;;;;5.95;4.90;;;;;;;-145.79;87.61;77108.09;5308162;28;20093;-69
2023/10/23 14:20:14;;;;;;;6.82;5.78;;;;;;;-145.79;87.83;77114.44;5316208;28;20487;-68
2023/10/23 14:22:45;;;;;;;8.10;5.90;;;;;;;-145.79;87.63;77120.81;5314506;28;20265;-68
2023/10/23 14:25:17;;;;;;;5.10;4.25;;;;;;;-145.79;89.68;77093.25;5302015;28;20448;-68
2023/10/23 14:27:48;;;;;;;8.10;6.03;;;;;;;-145.79;88.57;77112.31;5310299;28;20032;-69
2023/10/23 14:30:20;;;;;;;9.15;6.40;;;;;;;-145.79;88.86;77105.97;5307424;28;20548;-69
2023/10/23 14:32:51;;;;;;;6.95;6.22;;;;;;;-145.79;89.39;77095.38;5307989;28;20028;-68
2023/10/23 14:35:22;;;;;;;7.88;5.40;;;;;;;-145.79;91.39;77072.06;5303756;28;20103;-68
2023/10/23 14:37:54;;;;;;;6.07;5.47;;;;;;;-145.79;89.08;77086.91;5315010;28;20028;-69
2023/10/23 14:40:26;;;;;;;12.02;10.40;;;;;;;-145.79;90.24;77084.78;5303984;28;20039;-68
2023/10/23 14:42:57;;;;;;;7.05;5.60;;;;;;;-145.79;89.72;77082.66;5310725;28;20493;-69
2023/10/23 14:45:28;;;;;;;6.10;4.90;;;;;;;-145.79;88.90;77080.53;5316789;28;20088;-69
2023/10/23 14:47:59;;;;;;;7.47;5.40;;;;;;;-145.79;88.93;77072.06;5311635;28;20028;-69
2023/10/23 14:50:31;;;;;;;6.38;5.43;;;;;;;-145.79;88.57;77082.66;5292080;28;20475;-68
2023/10/23 14:53:02;;;;;;;6.10;5.45;;;;;;;-145.79;88.27;77082.66;5294999;28;20115;-68
2023/10/23 14:55:33;;;;;;;6.82;4.30;;;;;;;-145.79;87.86;77086.91;5294063;28;20019;-68
2023/10/23 14:58:05;;;;;;;6.85;4.72;;;;;;;-145.79;88.37;77091.13;5309048;28;20082;-68
2023/10/23 15:00:41;;;;;;;8.00;4.57;;;;;;;-145.79;88.75;77072.06;5308577;28;20023;-68
2023/10/23 15:03:12;;;;;;;6.90;4.32;;;;;;;-145.79;88.36;77076.31;5310179;28;20032;-68
2023/10/23 15:05:44;;;;;;;11.63;5.07;;;;;;;-145.79;88.68;77080.53;5317821;28;20084;-69
2023/10/23 15:08:15;;;;;;;9.05;5.00;;;;;;;-145.79;88.97;77080.53;5297631;28;20213;-68
2023/10/23 15:10:47;;;;;;;7.18;5.30;;;;;;;-145.79;89.37;77074.19;5314023;28;20019;-67
2023/10/23 15:13:18;;;;;;;6.63;4.88;;;;;;;-145.79;90.76;77057.22;5316052;28;20118;-69
2023/10/23 15:16:00;;;;;;;8.40;5.00;;;;;;;-145.79;89.44;77055.09;5308409;28;20400;-69
2023/10/23 15:18:33;;;;;;;7.65;4.90;;;;;;;-145.79;90.49;77050.88;5310635;28;20068;-70
2023/10/23 15:21:06;;;;;;;6.32;4.30;;;;;;;-145.79;89.99;77059.34;5315739;28;20027;-70
2023/10/23 15:23:37;;;;;;;6.45;5.07;;;;;;;-145.79;89.95;77063.59;5310967;28;20153;-69
2023/10/23 15:26:09;;;;;;;7.93;4.53;;;;;;;-145.79;90.32;77061.47;5308287;28;20106;-69
2023/10/23 15:28:40;;;;;;;5.18;4.43;;;;;;;-145.79;90.51;77067.81;5315586;28;20027;-69
2023/10/23 15:31:12;;;;;;;7.50;4.75;;;;;;;-145.79;90.67;77072.06;5307986;28;20106;-71
2023/10/23 15:33:43;;;;;;;7.80;5.28;;;;;;;-145.79;91.09;77065.69;5308463;28;20027;-69
2023/10/23 15:36:15;;;;;;;6.65;5.05;;;;;;;-145.79;91.79;77061.47;5310955;28;20034;-69
2023/10/23 15:38:46;;;;;;;5.57;4.47;;;;;;;-145.79;91.82;77052.97;5308774;28;20028;-68
2023/10/23 15:41:17;;;;;;;8.57;5.40;;;;;;;-145.79;91.76;77057.22;5308555;28;20023;-68
2023/10/23 15:43:53;;;;;;;7.30;4.10;;;;;;;-145.79;92.26;77050.88;5309656;28;20517;-68
2023/10/23 15:46:27;;;;;;;5.45;4.10;;;;;;;-145.79;92.82;77025.44;5307073;28;20095;-68
2023/10/23 15:48:59;;;;;;;9.05;5.32;;;;;;;-145.79;92.82;77048.75;5310606;28;20035;-68
2023/10/23 15:51:30;;;;;;;10.27;5.10;;;;;;;-145.79;92.93;77052.97;5307344;28;20027;-69
2023/10/23 15:54:02;;;;;;;7.00;4.88;;;;;;;-145.79;93.65;77042.38;5319541;28;20102;-68
2023/10/23 15:56:33;;;;;;;6.85;5.00;;;;;;;-145.79;94.08;77042.38;5311732;28;20028;-68
2023/10/23 15:59:04;;;;;;;5.90;4.80;;;;;;;-145.79;94.30;77046.63;5304213;28;20048;-67
2023/10/23 16:01:35;;;;;;;8.48;5.20;;;;;;;-145.79;94.89;77042.38;5319124;28;20035;-68
2023/10/23 16:04:07;;;;;;;7.40;5.45;;;;;;;-145.79;95.51;77042.38;5311592;28;20085;-68
2023/10/23 16:06:39;;;;;;;6.60;5.75;;;;;;;-145.79;95.60;77055.09;5318737;28;20027;-70
2023/10/23 16:09:10;;;;;;;8.88;6.30;;;;;;;-145.79;96.38;77046.63;5319558;28;20043;-69
2023/10/23 16:11:41;;;;;;;7.07;5.95;;;;;;;-145.79;96.72;77046.63;5315425;28;20020;-69
2023/10/23 16:14:13;;;;;;;10.10;5.85;;;;;;;-145.79;98.24;77050.88;5318845;28;20031;-70
2023/10/23 16:16:44;;;;;;;9.43;5.82;;;;;;;-145.79;99.39;77055.09;5303549;28;20051;-69
2023/10/23 16:19:15;;;;;;;7.45;6.05;;;;;;;-145.79;100.00;77055.09;5318802;28;20039;-70
2023/10/23 16:21:46;;;;;;;10.60;6.50;;;;;;;-145.79;100.00;77057.22;5319211;28;20036;-70
2023/10/23 16:24:18;;;;;;;8.82;7.10;;;;;;;-145.79;100.00;77055.09;5319372;28;20023;-70
2023/10/23 16:26:49;;;;;;;12.40;7.93;;;;;;;-145.79;100.00;77057.22;5318754;28;20039;-71
2023/10/23 16:29:20;;;;;;;8.98;7.53;;;;;;;-145.79;100.00;77052.97;5320046;28;20379;-68
2023/10/23 16:31:52;;;;;;;9.07;7.45;;;;;;;-145.79;100.00;77046.63;5314837;28;20073;-68
2023/10/23 16:34:23;;;;;;;8.55;7.20;;;;;;;-145.79;100.00;77033.91;5312967;28;20032;-69
2023/10/23 16:36:54;;;;;;;9.48;7.30;;;;;;;-145.79;100.00;77044.50;5316538;28;20115;-69
2023/10/23 16:39:30;;;;;;;10.52;7.55;;;;;;;-145.79;100.00;77052.97;5318426;28;20047;-69
2023/10/23 16:42:02;;;;;;;9.82;8.13;;;;;;;-145.79;100.00;77048.75;5317465;28;20505;-69
2023/10/23 16:44:33;;;;;;;15.57;8.68;;;;;;;-145.79;100.00;77046.63;5314992;28;20024;-69
2023/10/23 16:47:04;;;;;;;9.75;7.47;;;;;;;-145.79;100.00;77044.50;5314821;28;20147;-68
2023/10/23 16:49:36;;;;;;;10.93;8.10;;;;;;;-145.79;100.00;77046.63;5301026;28;20400;-68
2023/10/23 16:52:07;;;;;;;9.00;7.68;;;;;;;-145.79;100.00;77046.63;5312733;28;20089;-68
